Terminal Aerodrome Forecast
Issued by NWS Wichita, KS

Home | Current Version | Previous Version | Text Only | Print | Product List | Glossary On
Versions: 1 2 3 4 5 6 7 8 9 10 11 12 13 14 15 16 17 18
000
FTUS43 KICT 011132 AAC
TAFICT
TAF AMD
KICT 011132Z 0112/0212 30010KT P6SM SCT020
      TEMPO 0112/0116 BKN025
     FM011600 33015G23KT P6SM BKN040
     FM012300 36011KT P6SM OVC050
     FM020700 36007KT P6SM SCT020 OVC035
     FM021000 34008KT P6SM VCSH SCT010 OVC025=

USA.gov is the U.S. government's official web portal to all federal, state and local government web resources and services.